Time;durP1;ratioP1;P1;durP2;ratioP2;P2;SDS_P1;SDS_P2;PMS_P1;PMS_P2;Temp;Humidity;BMP_temperature;BMP_pressure;BME280_temperature;BME280_humidity;BME280_pressure;Samples;Min_cycle;Max_cycle;Signal;HPM_P1;HPM_P2
2021/10/30 00:02:01;;;;;;;12.37;7.80;;;11.30;82.20;;;;;;5054373;28;20187;-88
2021/10/30 00:04:27;;;;;;;11.23;7.30;;;11.30;82.10;;;;;;5036646;28;20592;-88
2021/10/30 00:06:53;;;;;;;11.90;7.57;;;11.30;82.30;;;;;;5035878;28;20218;-87
2021/10/30 00:09:19;;;;;;;10.30;7.80;;;11.20;82.30;;;;;;5053311;28;20172;-87
2021/10/30 00:11:45;;;;;;;9.87;7.43;;;11.20;82.40;;;;;;5035815;28;20546;-87
2021/10/30 00:14:11;;;;;;;10.87;7.27;;;11.20;82.40;;;;;;5053950;28;20263;-88
2021/10/30 00:16:37;;;;;;;8.87;7.27;;;11.20;82.40;;;;;;5053714;28;20215;-88
2021/10/30 00:19:02;;;;;;;9.23;7.60;;;11.10;82.50;;;;;;5055121;28;20184;-88
2021/10/30 00:21:29;;;;;;;11.53;7.67;;;11.10;82.60;;;;;;5040046;28;20183;-88
2021/10/30 00:23:55;;;;;;;11.07;7.80;;;11.10;82.70;;;;;;5039487;28;20279;-87
2021/10/30 00:26:20;;;;;;;11.97;8.97;;;11.00;82.90;;;;;;5039604;28;20253;-87
2021/10/30 00:28:47;;;;;;;14.07;8.80;;;11.00;83.00;;;;;;5039075;28;20648;-87
2021/10/30 00:31:13;;;;;;;18.07;9.53;;;11.00;83.00;;;;;;5038645;28;20267;-87
2021/10/30 00:33:38;;;;;;;13.43;9.97;;;10.90;83.20;;;;;;5038472;28;20231;-86
2021/10/30 00:36:04;;;;;;;12.23;8.30;;;10.90;83.20;;;;;;5038519;28;20211;-87
2021/10/30 00:38:30;;;;;;;10.90;7.63;;;10.90;83.20;;;;;;5056513;28;20278;-87
2021/10/30 00:40:55;;;;;;;9.43;7.70;;;10.90;83.00;;;;;;5038521;28;20168;-87
2021/10/30 00:43:21;;;;;;;8.77;7.33;;;10.90;83.10;;;;;;5038458;28;20286;-87
2021/10/30 00:45:47;;;;;;;10.53;7.53;;;10.90;83.10;;;;;;5038559;28;20192;-86
2021/10/30 00:48:15;;;;;;;11.83;8.33;;;10.90;83.30;;;;;;5038389;28;20267;-87
2021/10/30 00:50:41;;;;;;;13.27;7.83;;;10.80;83.70;;;;;;5038841;28;20179;-87
2021/10/30 00:53:08;;;;;;;15.13;9.57;;;10.70;83.70;;;;;;5056417;28;20607;-87
2021/10/30 00:55:34;;;;;;;15.33;9.37;;;10.70;83.90;;;;;;5038450;28;20176;-87
2021/10/30 00:58:02;;;;;;;12.63;8.67;;;10.70;83.90;;;;;;5038833;28;20231;-87
2021/10/30 01:00:28;;;;;;;12.33;8.63;;;10.70;83.90;;;;;;5039070;28;20179;-87
2021/10/30 01:02:54;;;;;;;10.10;8.53;;;10.60;84.10;;;;;;5038152;28;20208;-87
2021/10/30 01:05:19;;;;;;;11.30;8.57;;;10.70;84.00;;;;;;5038688;28;20662;-87
2021/10/30 01:07:46;;;;;;;11.73;7.73;;;10.60;84.10;;;;;;5038572;28;20172;-87
2021/10/30 01:10:13;;;;;;;12.97;8.73;;;10.60;84.20;;;;;;5038908;28;20176;-87
2021/10/30 01:12:38;;;;;;;13.60;8.27;;;10.50;84.20;;;;;;5038335;28;20241;-87
2021/10/30 01:15:06;;;;;;;14.40;8.43;;;10.50;84.30;;;;;;5056272;28;20180;-87
2021/10/30 01:17:32;;;;;;;13.03;8.87;;;10.50;84.30;;;;;;5038419;28;20287;-87
2021/10/30 01:19:58;;;;;;;9.93;8.17;;;10.50;84.40;;;;;;5056009;28;20200;-87
2021/10/30 01:22:24;;;;;;;10.53;8.10;;;10.50;84.40;;;;;;5056455;28;20194;-87
2021/10/30 01:24:51;;;;;;;9.40;7.63;;;10.50;84.50;;;;;;5037968;28;20203;-87
2021/10/30 01:27:21;;;;;;;13.13;8.10;;;10.50;84.50;;;;;;5038276;28;20195;-87
2021/10/30 01:29:51;;;;;;;11.17;8.17;;;10.50;84.50;;;;;;5055661;28;20219;-87
2021/10/30 01:32:20;;;;;;;9.23;8.23;;;10.40;84.50;;;;;;5036911;28;20196;-87
2021/10/30 01:34:46;;;;;;;12.47;7.87;;;10.40;84.60;;;;;;5055746;28;20242;-87
2021/10/30 01:37:13;;;;;;;9.47;8.30;;;10.40;84.70;;;;;;5037912;28;20204;-87
2021/10/30 01:39:40;;;;;;;22.20;8.97;;;10.40;84.60;;;;;;5037717;28;20207;-87
2021/10/30 01:42:06;;;;;;;10.83;8.03;;;10.30;84.70;;;;;;5037702;28;20195;-87
2021/10/30 01:44:31;;;;;;;12.83;8.73;;;10.30;84.80;;;;;;5037696;28;20759;-87
2021/10/30 01:47:00;;;;;;;12.57;8.20;;;10.30;84.80;;;;;;5038499;28;20206;-87
2021/10/30 01:49:26;;;;;;;11.20;7.97;;;10.30;85.00;;;;;;5037586;28;20176;-87
2021/10/30 01:51:52;;;;;;;9.20;7.50;;;10.30;85.00;;;;;;5037689;28;20710;-87
2021/10/30 01:54:18;;;;;;;10.67;8.20;;;10.20;85.00;;;;;;5055698;28;20172;-87
2021/10/30 01:56:43;;;;;;;11.37;8.17;;;10.20;85.00;;;;;;5055339;28;20172;-87
2021/10/30 01:59:09;;;;;;;10.83;7.73;;;10.20;85.20;;;;;;5055452;28;20206;-87
2021/10/30 02:01:35;;;;;;;10.50;7.93;;;10.10;85.40;;;;;;5055568;28;20176;-87
2021/10/30 02:04:01;;;;;;;15.57;7.90;;;10.10;85.30;;;;;;5037232;28;20212;-87
2021/10/30 02:06:27;;;;;;;12.80;8.60;;;10.10;85.40;;;;;;5055127;28;20166;-87
2021/10/30 02:08:53;;;;;;;16.50;8.50;;;10.00;85.50;;;;;;5037285;28;20266;-87
2021/10/30 02:11:20;;;;;;;11.50;7.73;;;10.00;85.80;;;;;;5055367;28;20199;-87
2021/10/30 02:13:46;;;;;;;10.90;8.47;;;10.00;86.00;;;;;;5037033;28;20270;-87
2021/10/30 02:16:13;;;;;;;10.50;8.40;;;9.90;86.10;;;;;;5037072;28;20190;-87
2021/10/30 02:18:40;;;;;;;11.07;8.93;;;9.90;86.30;;;;;;5036845;28;20252;-87
2021/10/30 02:21:06;;;;;;;12.53;8.57;;;9.90;86.10;;;;;;5036970;28;20547;-87
2021/10/30 02:23:31;;;;;;;11.53;8.23;;;9.90;86.10;;;;;;5037066;28;20196;-87
2021/10/30 02:25:57;;;;;;;15.10;8.30;;;9.90;86.00;;;;;;5037424;28;20176;-87
2021/10/30 02:28:23;;;;;;;13.20;8.53;;;9.90;86.00;;;;;;5055188;28;20172;-87
2021/10/30 02:30:49;;;;;;;8.90;7.03;;;9.80;86.00;;;;;;5037250;28;20176;-87
2021/10/30 02:33:14;;;;;;;9.97;8.23;;;9.90;85.80;;;;;;5037269;28;20602;-87
2021/10/30 02:35:40;;;;;;;11.27;8.77;;;10.00;85.60;;;;;;5037422;28;20180;-88
2021/10/30 02:38:06;;;;;;;9.60;7.63;;;10.00;85.40;;;;;;5054998;28;20219;-87
2021/10/30 02:40:32;;;;;;;12.33;7.57;;;9.90;85.20;;;;;;5037193;28;20205;-87
2021/10/30 02:42:57;;;;;;;11.30;7.30;;;9.90;85.30;;;;;;5036947;28;20196;-88
2021/10/30 02:45:23;;;;;;;9.93;8.13;;;9.90;85.40;;;;;;5037341;28;20176;-87
2021/10/30 02:47:49;;;;;;;12.33;7.43;;;9.90;85.20;;;;;;5037422;28;20180;-87
2021/10/30 02:50:15;;;;;;;13.07;8.13;;;9.90;85.30;;;;;;5054969;28;20200;-87
2021/10/30 02:52:41;;;;;;;11.47;7.53;;;9.90;85.30;;;;;;5037166;28;20234;-87
2021/10/30 02:55:08;;;;;;;11.33;6.93;;;9.80;85.40;;;;;;5036715;28;20172;-88
2021/10/30 02:57:33;;;;;;;13.77;7.70;;;9.80;85.40;;;;;;5036552;28;20204;-87
2021/10/30 02:59:59;;;;;;;12.97;7.47;;;9.80;85.50;;;;;;5036443;28;20235;-87
2021/10/30 03:02:25;;;;;;;10.00;7.40;;;9.70;85.90;;;;;;5054507;28;20234;-87
2021/10/30 03:04:51;;;;;;;8.83;7.17;;;9.70;85.90;;;;;;5036521;28;20176;-87
2021/10/30 03:07:18;;;;;;;8.90;7.30;;;9.60;85.80;;;;;;5054679;28;20175;-87
2021/10/30 03:09:49;;;;;;;9.00;7.23;;;9.60;85.90;;;;;;5036774;28;20186;-88
2021/10/30 03:12:15;;;;;;;9.77;7.87;;;9.60;85.80;;;;;;5036105;28;20200;-87
2021/10/30 03:14:40;;;;;;;14.70;7.33;;;9.60;86.00;;;;;;5036460;28;20191;-87
2021/10/30 03:17:06;;;;;;;10.87;8.23;;;9.60;86.10;;;;;;5036547;28;20543;-87
2021/10/30 03:19:32;;;;;;;9.63;7.63;;;9.50;86.40;;;;;;5036262;28;20203;-87
2021/10/30 03:21:58;;;;;;;10.20;8.13;;;9.40;86.40;;;;;;5036026;28;20555;-87
2021/10/30 03:24:24;;;;;;;10.13;8.07;;;9.30;86.60;;;;;;5036136;28;20175;-87
2021/10/30 03:26:50;;;;;;;11.00;7.63;;;9.30;86.60;;;;;;5054128;28;20175;-87
2021/10/30 03:29:15;;;;;;;15.00;7.70;;;9.30;86.80;;;;;;5036428;28;20642;-87
2021/10/30 03:31:41;;;;;;;13.97;8.07;;;9.30;87.00;;;;;;5036366;28;20175;-87
2021/10/30 03:34:07;;;;;;;10.07;7.83;;;9.40;86.80;;;;;;5036306;28;20199;-87
2021/10/30 03:36:33;;;;;;;12.30;8.20;;;9.50;86.80;;;;;;5036642;28;20180;-87
2021/10/30 03:38:59;;;;;;;8.37;7.20;;;9.50;86.80;;;;;;5036431;28;20214;-87
2021/10/30 03:41:24;;;;;;;9.47;7.37;;;9.60;86.70;;;;;;5054381;28;20179;-87
2021/10/30 03:43:50;;;;;;;9.70;7.37;;;9.50;86.70;;;;;;5053883;28;20188;-87
2021/10/30 03:46:16;;;;;;;11.03;7.77;;;9.50;86.60;;;;;;5036232;28;20554;-87
2021/10/30 03:48:42;;;;;;;10.40;7.63;;;9.40;86.80;;;;;;5036233;28;20191;-87
2021/10/30 03:51:07;;;;;;;8.97;7.17;;;9.50;86.80;;;;;;5036537;28;20188;-87
2021/10/30 03:53:33;;;;;;;8.30;7.30;;;9.50;86.50;;;;;;5054297;28;20192;-87
2021/10/30 03:55:59;;;;;;;8.40;7.17;;;9.50;86.50;;;;;;5040704;28;20202;-88
2021/10/30 03:58:24;;;;;;;8.73;7.03;;;9.50;86.60;;;;;;5039982;28;20211;-88
2021/10/30 04:00:50;;;;;;;8.80;7.00;;;9.50;86.40;;;;;;5040345;28;20176;-88
2021/10/30 04:03:16;;;;;;;10.03;6.77;;;9.60;86.30;;;;;;5057603;28;20313;-87
2021/10/30 04:05:41;;;;;;;14.70;7.17;;;9.50;86.30;;;;;;5039945;28;20233;-88
2021/10/30 04:08:07;;;;;;;10.53;7.20;;;9.50;86.30;;;;;;5040257;28;20271;-88
2021/10/30 04:10:34;;;;;;;9.37;7.40;;;9.50;86.30;;;;;;5039679;28;20183;-88
2021/10/30 04:12:59;;;;;;;10.47;7.47;;;9.40;86.60;;;;;;5039607;28;20234;-87
2021/10/30 04:15:25;;;;;;;14.73;8.27;;;9.40;86.70;;;;;;5057540;28;20265;-87
2021/10/30 04:17:51;;;;;;;11.90;8.40;;;9.30;87.00;;;;;;5039292;28;20642;-87
2021/10/30 04:20:16;;;;;;;9.77;7.63;;;9.30;87.10;;;;;;5057061;28;20168;-87
2021/10/30 04:22:42;;;;;;;10.40;7.73;;;9.30;87.10;;;;;;5057165;28;20191;-87
2021/10/30 04:25:08;;;;;;;11.33;8.67;;;9.30;87.30;;;;;;5039284;28;20202;-87
2021/10/30 04:27:34;;;;;;;10.80;8.17;;;9.30;87.30;;;;;;5057174;28;20199;-87
2021/10/30 04:30:00;;;;;;;12.23;8.43;;;9.30;87.30;;;;;;5057496;28;20168;-87
2021/10/30 04:32:25;;;;;;;9.20;7.93;;;9.40;87.10;;;;;;5057437;28;20248;-87
2021/10/30 04:35:03;;;;;;;11.93;7.20;;;9.40;86.90;;;;;;5039145;28;20221;-87
2021/10/30 04:37:28;;;;;;;14.87;8.00;;;9.40;86.90;;;;;;5039478;28;20164;-87
2021/10/30 04:39:54;;;;;;;12.87;8.07;;;9.40;86.70;;;;;;5057148;28;20210;-88
2021/10/30 04:42:21;;;;;;;11.03;7.70;;;9.40;86.60;;;;;;5056959;28;20211;-87
2021/10/30 04:44:47;;;;;;;9.20;7.20;;;9.50;86.60;;;;;;5039310;28;20186;-87
2021/10/30 04:47:16;;;;;;;11.00;7.13;;;9.50;86.40;;;;;;5056916;28;20168;-88
2021/10/30 04:49:46;;;;;;;8.60;7.63;;;9.40;86.30;;;;;;5039128;28;20203;-87
2021/10/30 04:52:12;;;;;;;11.00;7.60;;;9.40;86.30;;;;;;5039528;28;20691;-87
2021/10/30 04:54:38;;;;;;;10.83;7.73;;;9.40;86.20;;;;;;5038934;28;20195;-87
2021/10/30 04:57:04;;;;;;;9.27;7.70;;;9.40;86.40;;;;;;5039129;28;20180;-87
2021/10/30 04:59:30;;;;;;;9.90;7.63;;;9.40;86.30;;;;;;5056695;28;20199;-87
2021/10/30 05:01:56;;;;;;;10.17;8.37;;;9.40;86.40;;;;;;5056643;28;20180;-87
2021/10/30 05:04:21;;;;;;;9.03;7.67;;;9.40;86.40;;;;;;5056851;28;20151;-87
2021/10/30 05:06:47;;;;;;;9.70;7.30;;;9.40;86.50;;;;;;5038643;28;20263;-87
2021/10/30 05:09:13;;;;;;;10.83;7.60;;;9.40;86.50;;;;;;5038975;28;20172;-87
2021/10/30 05:11:39;;;;;;;12.70;7.03;;;9.50;86.40;;;;;;5056812;28;20205;-88
2021/10/30 05:14:04;;;;;;;12.40;7.90;;;9.50;86.50;;;;;;5038808;28;20664;-88
2021/10/30 05:16:30;;;;;;;10.27;8.10;;;9.60;86.30;;;;;;5039133;28;20214;-87
2021/10/30 05:18:56;;;;;;;8.90;8.00;;;9.50;86.30;;;;;;5038717;28;20231;-87
2021/10/30 05:21:21;;;;;;;15.67;8.67;;;9.50;86.10;;;;;;5038889;28;20288;-87
2021/10/30 05:23:47;;;;;;;9.47;8.10;;;9.50;86.20;;;;;;5038988;28;20237;-87
2021/10/30 05:26:12;;;;;;;10.33;8.33;;;9.50;86.20;;;;;;5038634;28;20179;-87
2021/10/30 05:28:38;;;;;;;11.80;8.47;;;9.50;86.10;;;;;;5056629;28;20301;-87
2021/10/30 05:31:04;;;;;;;11.23;8.40;;;9.50;86.20;;;;;;5038654;28;20260;-88
2021/10/30 05:33:30;;;;;;;9.70;7.67;;;9.50;86.20;;;;;;5038467;28;20203;-87
2021/10/30 05:35:55;;;;;;;12.13;7.60;;;9.40;86.30;;;;;;5056748;28;20175;-88
2021/10/30 05:38:21;;;;;;;9.37;7.73;;;9.50;86.20;;;;;;5038682;28;20207;-88
2021/10/30 05:40:48;;;;;;;12.50;7.40;;;9.40;86.30;;;;;;5056309;28;20282;-88
2021/10/30 05:43:14;;;;;;;10.40;7.37;;;9.40;86.50;;;;;;5038503;28;20586;-88
2021/10/30 05:45:42;;;;;;;8.60;7.70;;;9.30;86.70;;;;;;5056290;28;20186;-88
2021/10/30 05:48:09;;;;;;;10.07;8.07;;;9.30;86.90;;;;;;5037999;28;20678;-87
2021/10/30 05:50:35;;;;;;;13.53;8.17;;;9.30;86.90;;;;;;5055870;28;20175;-87
2021/10/30 05:53:01;;;;;;;11.80;7.93;;;9.30;86.90;;;;;;5056025;28;20188;-88
2021/10/30 05:55:27;;;;;;;10.57;8.17;;;9.30;87.00;;;;;;5037944;28;20187;-87
2021/10/30 05:57:53;;;;;;;10.23;8.30;;;9.30;86.90;;;;;;5037951;28;20172;-87
2021/10/30 06:00:19;;;;;;;9.87;8.10;;;9.30;86.90;;;;;;5038417;28;20306;-88
2021/10/30 06:02:44;;;;;;;14.17;8.13;;;9.40;86.90;;;;;;5055377;28;20211;-88
2021/10/30 06:05:10;;;;;;;10.97;7.97;;;9.40;87.10;;;;;;5055502;28;20576;-88
2021/10/30 06:07:36;;;;;;;14.20;8.43;;;9.30;87.20;;;;;;5055674;28;20660;-87
2021/10/30 06:10:03;;;;;;;11.33;7.77;;;9.30;87.40;;;;;;5039199;28;20176;-87
2021/10/30 06:12:28;;;;;;;8.93;8.03;;;9.30;87.70;;;;;;5038677;28;20589;-88
2021/10/30 06:14:54;;;;;;;9.83;8.07;;;9.30;87.60;;;;;;5038838;28;20176;-87
2021/10/30 06:17:20;;;;;;;9.00;7.83;;;9.30;87.70;;;;;;5037393;28;20176;-87
2021/10/30 06:19:47;;;;;;;9.07;7.80;;;9.30;87.90;;;;;;5055691;28;20218;-87
2021/10/30 06:22:13;;;;;;;11.57;8.07;;;9.20;88.00;;;;;;5038972;28;20192;-87
2021/10/30 06:24:38;;;;;;;14.20;8.60;;;9.30;88.10;;;;;;5038388;28;20179;-88
2021/10/30 06:27:05;;;;;;;9.17;7.60;;;9.30;88.00;;;;;;5039041;28;20304;-87
2021/10/30 06:29:30;;;;;;;14.43;8.57;;;9.30;87.90;;;;;;5056036;28;20172;-88
2021/10/30 06:31:56;;;;;;;17.53;8.00;;;9.40;87.80;;;;;;5037942;28;20198;-87
2021/10/30 06:34:22;;;;;;;15.10;7.80;;;9.50;87.70;;;;;;5055635;28;20168;-88
2021/10/30 06:36:48;;;;;;;16.10;7.87;;;9.50;87.50;;;;;;5036971;28;20176;-87
2021/10/30 06:39:13;;;;;;;10.03;7.73;;;9.50;87.40;;;;;;5037560;28;20236;-87
2021/10/30 06:41:39;;;;;;;13.10;8.60;;;9.60;87.30;;;;;;5037951;28;20203;-88
2021/10/30 06:44:05;;;;;;;10.03;8.10;;;9.60;87.30;;;;;;5037937;28;20199;-88
2021/10/30 06:46:30;;;;;;;11.47;7.97;;;9.60;87.20;;;;;;5037077;28;20180;-87
2021/10/30 06:48:57;;;;;;;8.90;7.87;;;9.70;87.10;;;;;;5036679;28;20179;-87
2021/10/30 06:51:24;;;;;;;14.83;7.70;;;9.70;87.00;;;;;;5036726;28;20211;-87
2021/10/30 06:53:50;;;;;;;13.77;8.20;;;9.60;86.90;;;;;;5036671;28;20196;-87
2021/10/30 06:56:16;;;;;;;10.80;7.63;;;9.70;87.00;;;;;;5036827;28;20283;-87
2021/10/30 06:58:42;;;;;;;12.33;7.73;;;9.70;86.70;;;;;;5036812;28;20238;-88
2021/10/30 07:01:08;;;;;;;16.40;8.70;;;9.70;86.70;;;;;;5036671;28;20175;-87
2021/10/30 07:03:35;;;;;;;16.17;8.50;;;9.70;86.70;;;;;;5054148;28;20208;-87
2021/10/30 07:06:01;;;;;;;12.57;7.47;;;9.70;86.70;;;;;;5036750;28;20183;-87
2021/10/30 07:08:27;;;;;;;16.17;8.17;;;9.70;86.70;;;;;;5036459;28;20183;-87
2021/10/30 07:10:53;;;;;;;12.37;7.83;;;9.70;86.70;;;;;;5037255;28;20265;-87
2021/10/30 07:13:18;;;;;;;14.77;8.60;;;9.70;86.70;;;;;;5036724;28;20203;-87
2021/10/30 07:15:44;;;;;;;12.60;8.13;;;9.70;86.80;;;;;;5036608;28;20549;-87
2021/10/30 07:18:10;;;;;;;11.57;8.30;;;9.60;86.90;;;;;;5054472;28;20203;-87
2021/10/30 07:20:36;;;;;;;16.50;7.90;;;9.70;86.90;;;;;;5054613;28;20168;-87
2021/10/30 07:23:02;;;;;;;13.73;8.47;;;9.70;86.80;;;;;;5036502;28;20200;-87
2021/10/30 07:25:27;;;;;;;14.93;8.60;;;9.70;86.70;;;;;;5053887;28;20230;-87
2021/10/30 07:27:53;;;;;;;14.40;9.03;;;9.70;86.80;;;;;;5035896;28;20684;-87
2021/10/30 07:30:20;;;;;;;10.67;8.87;;;9.70;86.70;;;;;;5035409;28;20667;-87
2021/10/30 07:32:51;;;;;;;15.37;9.87;;;9.60;86.70;;;;;;5054145;28;20192;-87
2021/10/30 07:35:18;;;;;;;11.47;9.37;;;9.60;86.70;;;;;;5037187;28;20486;-87
2021/10/30 07:37:43;;;;;;;18.90;8.67;;;9.70;86.80;;;;;;5037614;28;20196;-87
2021/10/30 07:40:09;;;;;;;10.60;9.50;;;9.70;86.70;;;;;;5035876;28;20269;-86
2021/10/30 07:42:35;;;;;;;12.40;9.33;;;9.80;86.60;;;;;;5034796;28;20203;-86
2021/10/30 07:45:02;;;;;;;15.53;9.53;;;9.80;86.60;;;;;;5052977;28;20302;-86
2021/10/30 07:47:28;;;;;;;13.20;9.70;;;9.90;86.70;;;;;;5053330;28;20259;-86
2021/10/30 07:49:53;;;;;;;12.07;9.17;;;9.90;86.80;;;;;;5053018;28;20650;-85
2021/10/30 07:52:21;;;;;;;13.87;10.13;;;9.90;86.90;;;;;;5052872;28;20195;-85
2021/10/30 07:54:47;;;;;;;14.57;9.57;;;9.90;86.60;;;;;;5035030;28;20183;-86
2021/10/30 07:57:13;;;;;;;14.27;10.13;;;9.90;86.50;;;;;;5035056;28;20180;-85
2021/10/30 07:59:39;;;;;;;16.17;10.00;;;10.00;86.20;;;;;;5034865;28;20211;-86
2021/10/30 08:02:07;;;;;;;10.93;9.27;;;10.10;85.90;;;;;;5052659;28;20594;-86
2021/10/30 08:04:33;;;;;;;11.53;9.37;;;10.20;85.70;;;;;;5034976;28;20178;-86
2021/10/30 08:06:59;;;;;;;10.10;8.60;;;10.20;85.30;;;;;;5034900;28;20176;-86
2021/10/30 08:09:26;;;;;;;10.93;9.40;;;10.30;85.20;;;;;;5052641;28;20188;-86
2021/10/30 08:11:52;;;;;;;17.03;8.87;;;10.40;84.80;;;;;;5034914;28;20191;-86
2021/10/30 08:14:17;;;;;;;12.10;8.77;;;10.50;84.40;;;;;;5035225;28;20180;-87
2021/10/30 08:16:43;;;;;;;10.63;9.53;;;10.60;84.50;;;;;;5052688;28;20176;-85
2021/10/30 08:19:09;;;;;;;12.07;9.63;;;10.70;84.10;;;;;;5034888;28;20672;-87
2021/10/30 08:21:35;;;;;;;15.47;8.80;;;10.70;83.50;;;;;;5035249;28;20271;-86
2021/10/30 08:24:02;;;;;;;12.80;8.90;;;10.80;83.20;;;;;;5034958;28;20282;-86
2021/10/30 08:26:29;;;;;;;11.43;9.70;;;10.80;82.80;;;;;;5034963;28;20667;-87
2021/10/30 08:28:55;;;;;;;12.73;8.40;;;10.90;82.70;;;;;;5035275;28;20188;-87
2021/10/30 08:31:21;;;;;;;13.53;8.20;;;11.00;82.40;;;;;;5052610;28;20758;-85
2021/10/30 08:33:47;;;;;;;14.47;8.33;;;10.90;82.30;;;;;;5034701;28;20235;-86
2021/10/30 08:36:13;;;;;;;11.77;8.30;;;11.00;81.50;;;;;;5052851;28;20183;-86
2021/10/30 08:38:38;;;;;;;13.63;8.47;;;11.10;81.50;;;;;;5035212;28;20195;-86
2021/10/30 08:41:04;;;;;;;9.03;7.90;;;11.10;81.80;;;;;;5036935;28;20222;-85
2021/10/30 08:43:30;;;;;;;13.77;8.80;;;11.10;81.60;;;;;;5056124;28;20195;-85
2021/10/30 08:45:57;;;;;;;12.97;9.30;;;11.00;81.30;;;;;;5056430;28;20175;-86
2021/10/30 08:48:25;;;;;;;14.77;8.67;;;11.00;81.50;;;;;;5038408;28;20177;-87
2021/10/30 08:50:51;;;;;;;12.53;8.90;;;11.10;80.50;;;;;;5056204;28;20530;-86
2021/10/30 08:53:18;;;;;;;11.97;8.83;;;11.10;81.10;;;;;;5038091;28;20695;-85
2021/10/30 08:55:48;;;;;;;11.00;8.77;;;11.10;81.50;;;;;;5055916;28;20183;-86
2021/10/30 08:58:16;;;;;;;12.23;8.77;;;11.00;80.90;;;;;;5038023;28;20188;-85
2021/10/30 09:00:47;;;;;;;10.97;8.10;;;11.10;80.80;;;;;;5055956;28;20176;-85
2021/10/30 09:03:18;;;;;;;9.07;8.13;;;11.10;81.10;;;;;;5055028;28;20212;-85
2021/10/30 09:05:48;;;;;;;12.27;8.20;;;11.10;81.30;;;;;;5038604;28;20172;-86
2021/10/30 09:08:16;;;;;;;10.13;8.90;;;11.20;80.60;;;;;;5055730;28;20221;-86
2021/10/30 09:11:08;;;;;;;11.57;8.70;;;11.20;80.80;;;;;;5038719;28;20180;-85
2021/10/30 09:13:35;;;;;;;10.87;8.10;;;11.20;80.10;;;;;;5055577;28;20188;-86
2021/10/30 09:16:02;;;;;;;14.57;8.67;;;11.20;80.10;;;;;;5055694;28;20544;-86
2021/10/30 09:18:39;;;;;;;9.50;7.40;;;11.10;80.00;;;;;;5037997;28;20200;-86
2021/10/30 09:21:05;;;;;;;10.97;8.63;;;11.10;80.50;;;;;;5037598;28;20206;-86
2021/10/30 09:23:33;;;;;;;8.97;8.03;;;11.20;80.60;;;;;;5055597;28;20216;-86
2021/10/30 09:26:31;;;;;;;11.50;8.40;;;11.20;80.60;;;;;;5037508;28;20180;-85
2021/10/30 09:29:03;;;;;;;8.80;7.90;;;11.20;80.10;;;;;;5033323;28;20180;-87
2021/10/30 09:31:29;;;;;;;13.90;7.93;;;11.20;80.40;;;;;;5037664;28;20199;-86
2021/10/30 09:33:56;;;;;;;9.23;8.03;;;11.20;80.60;;;;;;5037219;28;20256;-86
2021/10/30 09:36:28;;;;;;;11.97;8.40;;;11.20;80.60;;;;;;5037753;28;20179;-84
2021/10/30 09:38:55;;;;;;;11.63;7.73;;;11.20;80.80;;;;;;5037440;28;20192;-85
2021/10/30 09:41:30;;;;;;;12.23;7.77;;;11.30;80.90;;;;;;5037956;28;20180;-84
2021/10/30 09:44:05;;;;;;;9.00;7.83;;;11.30;80.90;;;;;;5055320;28;20565;-84
2021/10/30 09:46:34;;;;;;;9.30;7.63;;;11.30;80.80;;;;;;5055236;28;20156;-84
2021/10/30 09:49:13;;;;;;;9.20;7.63;;;11.40;80.40;;;;;;5054959;28;20187;-84
2021/10/30 09:51:41;;;;;;;12.37;7.53;;;11.40;80.90;;;;;;5036023;28;20306;-84
2021/10/30 09:54:07;;;;;;;11.23;7.13;;;11.50;80.40;;;;;;5036931;28;20622;-85
2021/10/30 09:56:51;;;;;;;9.63;6.43;;;11.50;80.40;;;;;;5054867;28;20191;-85
2021/10/30 09:59:18;;;;;;;7.80;6.40;;;11.60;79.70;;;;;;5036762;28;20188;-85
2021/10/30 10:01:48;;;;;;;11.13;6.43;;;11.70;79.70;;;;;;5036892;28;20766;-85
2021/10/30 10:04:16;;;;;;;7.90;5.77;;;11.70;79.40;;;;;;5129102;22;20753;-88
2021/10/30 10:06:44;;;;;;;9.17;7.10;;;11.80;79.30;;;;;;5056612;28;20179;-88
2021/10/30 10:09:14;;;;;;;11.20;6.97;;;12.00;78.70;;;;;;5056637;28;20175;-88
2021/10/30 10:11:42;;;;;;;9.37;6.23;;;12.10;78.30;;;;;;5056663;28;20174;-88
2021/10/30 10:14:10;;;;;;;7.03;5.00;;;12.20;78.20;;;;;;5056431;28;20202;-87
2021/10/30 10:16:36;;;;;;;9.77;5.20;;;12.20;77.80;;;;;;5075278;28;20182;-90
2021/10/30 10:19:02;;;;;;;9.03;5.37;;;12.30;78.40;;;;;;5074775;28;20286;-87
2021/10/30 10:21:32;;;;;;;7.50;5.13;;;12.40;77.20;;;;;;5074990;28;20662;-88
2021/10/30 10:24:02;;;;;;;7.13;4.70;;;12.50;77.20;;;;;;5057047;28;20282;-87
2021/10/30 10:26:49;;;;;;;7.17;4.73;;;12.70;77.30;;;;;;5056525;28;20179;-88
2021/10/30 10:29:27;;;;;;;7.07;4.60;;;12.70;77.00;;;;;;5056352;28;20168;-86
2021/10/30 10:31:53;;;;;;;8.20;4.70;;;12.80;76.90;;;;;;5056364;28;20163;-86
2021/10/30 10:34:32;;;;;;;9.73;4.80;;;12.90;76.80;;;;;;5056352;28;20252;-87
2021/10/30 10:37:14;;;;;;;5.53;4.27;;;13.00;76.60;;;;;;5074328;28;20155;-86
2021/10/30 10:39:41;;;;;;;11.57;4.20;;;13.10;75.60;;;;;;5055883;28;20191;-87
2021/10/30 10:42:37;;;;;;;6.20;3.87;;;13.10;75.20;;;;;;5073848;28;20163;-88
2021/10/30 10:45:08;;;;;;;4.93;3.87;;;13.10;75.50;;;;;;5073402;28;20237;-87
2021/10/30 10:47:40;;;;;;;7.47;4.37;;;13.20;75.00;;;;;;5056323;28;20590;-87
2021/10/30 10:50:29;;;;;;;8.43;4.23;;;13.30;74.70;;;;;;5056754;28;20655;-87
2021/10/30 10:53:16;;;;;;;7.47;3.87;;;13.40;75.10;;;;;;5074378;28;20191;-87
2021/10/30 10:55:45;;;;;;;6.97;4.40;;;13.40;75.00;;;;;;5073882;28;20178;-87
2021/10/30 10:58:12;;;;;;;9.23;4.10;;;13.50;75.50;;;;;;5073651;28;20259;-88
2021/10/30 11:00:58;;;;;;;5.93;4.17;;;13.50;74.80;;;;;;5073781;28;20193;-88
2021/10/30 11:03:28;;;;;;;8.83;4.00;;;13.50;74.00;;;;;;5073359;28;20336;-88
2021/10/30 11:05:58;;;;;;;5.60;3.73;;;13.60;73.70;;;;;;5056057;28;20526;-88
2021/10/30 11:08:29;;;;;;;5.60;4.20;;;13.60;73.50;;;;;;5057286;28;20180;-87
2021/10/30 11:11:12;;;;;;;5.30;3.97;;;13.60;73.50;;;;;;5056143;28;20175;-87
2021/10/30 11:14:06;;;;;;;5.20;4.03;;;13.60;72.90;;;;;;5073364;28;20274;-87
2021/10/30 11:16:39;;;;;;;7.73;4.20;;;13.70;72.80;;;;;;5073322;28;20225;-87
2021/10/30 11:19:23;;;;;;;5.20;3.97;;;13.70;73.30;;;;;;5055353;28;20191;-87
2021/10/30 11:22:08;;;;;;;9.23;4.03;;;13.60;73.40;;;;;;5055395;28;20159;-88
2021/10/30 11:24:47;;;;;;;6.17;4.70;;;13.70;74.00;;;;;;5055532;28;20285;-87
2021/10/30 11:27:13;;;;;;;5.20;4.17;;;13.70;73.20;;;;;;5055408;28;20172;-87
2021/10/30 11:29:48;;;;;;;7.83;4.07;;;13.80;73.70;;;;;;5055338;28;20240;-87
2021/10/30 11:32:14;;;;;;;12.63;5.47;;;13.80;74.00;;;;;;5055696;28;20171;-87
2021/10/30 11:34:39;;;;;;;6.63;3.77;;;13.80;74.60;;;;;;5055294;28;20201;-87
2021/10/30 11:37:05;;;;;;;5.70;4.13;;;13.80;74.60;;;;;;5055266;28;20182;-87
2021/10/30 11:39:31;;;;;;;5.40;3.77;;;13.80;73.70;;;;;;5055216;28;20194;-88
2021/10/30 11:42:01;;;;;;;8.17;4.20;;;13.80;74.00;;;;;;5073110;28;20175;-87
2021/10/30 11:44:26;;;;;;;10.40;5.13;;;13.80;73.90;;;;;;5055126;28;20195;-87
2021/10/30 11:46:54;;;;;;;9.70;3.90;;;13.90;73.00;;;;;;5073084;28;20186;-89
2021/10/30 11:49:29;;;;;;;6.33;3.80;;;13.90;72.20;;;;;;5055116;28;20265;-87
2021/10/30 11:52:00;;;;;;;5.97;4.20;;;14.00;71.40;;;;;;5072880;28;20228;-87
2021/10/30 11:54:26;;;;;;;6.50;4.73;;;14.00;71.60;;;;;;5055067;28;20738;-87
2021/10/30 11:56:52;;;;;;;6.57;4.47;;;14.10;72.00;;;;;;5055056;28;20278;-87
2021/10/30 11:59:18;;;;;;;7.13;4.77;;;14.10;72.60;;;;;;5072852;28;20245;-86
2021/10/30 12:01:46;;;;;;;7.23;4.93;;;14.10;73.10;;;;;;5055091;28;20258;-86
2021/10/30 12:04:20;;;;;;;7.63;4.47;;;14.10;73.30;;;;;;5072695;28;20289;-86
2021/10/30 12:07:00;;;;;;;9.53;4.40;;;14.10;73.50;;;;;;5054977;28;20627;-87
2021/10/30 12:09:34;;;;;;;7.07;4.53;;;14.10;74.20;;;;;;5073071;28;20168;-87
2021/10/30 12:12:19;;;;;;;8.43;4.70;;;14.00;73.60;;;;;;5055228;28;20159;-87
2021/10/30 12:14:47;;;;;;;7.83;4.63;;;14.10;73.10;;;;;;5055238;28;20164;-87
2021/10/30 12:17:23;;;;;;;8.63;4.77;;;14.10;71.70;;;;;;5058754;28;20176;-86
2021/10/30 12:20:01;;;;;;;7.00;4.53;;;14.20;71.10;;;;;;5059142;28;20251;-87
2021/10/30 12:22:32;;;;;;;7.20;5.00;;;14.30;70.90;;;;;;5058862;28;20281;-86
2021/10/30 12:25:09;;;;;;;6.90;4.83;;;14.20;70.80;;;;;;5076869;28;20519;-88
2021/10/30 12:27:53;;;;;;;6.63;5.10;;;14.20;71.10;;;;;;5076580;28;20164;-86
2021/10/30 12:30:20;;;;;;;14.10;5.87;;;14.20;71.10;;;;;;5076654;28;20183;-85
2021/10/30 12:32:48;;;;;;;9.90;6.03;;;14.20;71.60;;;;;;5058362;28;20199;-85
2021/10/30 12:35:21;;;;;;;11.17;5.50;;;14.20;72.70;;;;;;5058982;28;20185;-86
2021/10/30 12:37:47;;;;;;;9.50;5.43;;;14.20;73.20;;;;;;5058691;28;20174;-86
2021/10/30 12:40:14;;;;;;;9.33;6.57;;;14.10;73.10;;;;;;5058484;28;20367;-86
2021/10/30 12:42:41;;;;;;;11.47;6.20;;;14.00;73.30;;;;;;5058382;28;20191;-85
2021/10/30 12:45:07;;;;;;;8.27;6.40;;;14.00;74.10;;;;;;5076790;28;20262;-86
2021/10/30 12:47:33;;;;;;;10.90;7.10;;;14.00;73.50;;;;;;5076339;28;20167;-87
2021/10/30 12:50:07;;;;;;;8.83;6.67;;;14.00;74.00;;;;;;5058485;28;20176;-87